Terminal Aerodrome Forecast
Issued by NWS

Home | Current Version | Previous Version | Text Only | Print | Product List | Glossary On
Versions: 1 2 3 4 5 6 7 8 9 10 11 12 13 14
000
FTUS45 KRIW 022327
TAFCPR
TAF
KCPR 022327Z 0300/0324 22014G20KT P6SM FEW120
     FM030130 20011KT P6SM SCT110
     FM030500 20008KT P6SM FEW100 WS010/23035KT
     FM031200 21011KT P6SM SCT200
     FM031600 21014KT P6SM BKN200
     FM032100 21012KT P6SM VCSH BKN120=

USA.gov is the U.S. government's official web portal to all federal, state and local government web resources and services.